createdAt,value
2022-10-07T00:00:46.204Z,13.84
2022-10-07T00:02:48.982Z,14.04
2022-10-07T00:04:53.126Z,14.15
2022-10-07T00:06:56.030Z,14.13
2022-10-07T00:08:59.736Z,13.76
2022-10-07T00:11:06.773Z,14.17
2022-10-07T00:13:11.928Z,14.17
2022-10-07T00:15:15.244Z,14.24
2022-10-07T00:17:18.145Z,13.54
2022-10-07T00:19:20.811Z,14.13
2022-10-07T00:21:26.942Z,14.04
2022-10-07T00:23:29.626Z,13.95
2022-10-07T00:25:32.427Z,14.03
2022-10-07T00:27:35.077Z,13.46
2022-10-07T00:29:37.939Z,13.40
2022-10-07T00:31:41.833Z,13.57
2022-10-07T00:33:45.530Z,13.83
2022-10-07T00:35:50.525Z,13.92
2022-10-07T00:37:54.663Z,14.04
2022-10-07T00:39:57.447Z,14.03
2022-10-07T00:42:00.151Z,13.83
2022-10-07T00:44:41.612Z,14.02
2022-10-07T00:46:44.353Z,13.99
2022-10-07T00:48:47.659Z,14.09
2022-10-07T00:50:53.312Z,12.46
2022-10-07T00:53:00.705Z,14.08
2022-10-07T00:55:08.695Z,14.18
2022-10-07T00:57:12.031Z,14.25
2022-10-07T00:59:16.675Z,13.41
2022-10-07T01:01:20.540Z,13.80
2022-10-07T01:03:24.273Z,14.07
2022-10-07T01:05:27.159Z,13.75
2022-10-07T01:07:30.326Z,13.86
2022-10-07T01:09:34.620Z,13.56
2022-10-07T01:11:50.250Z,13.67
2022-10-07T01:14:04.423Z,13.41
2022-10-07T01:16:16.525Z,12.90
2022-10-07T01:18:25.039Z,13.65
2022-10-07T01:20:35.782Z,13.72
2022-10-07T01:22:47.785Z,13.86
2022-10-07T01:25:04.314Z,13.96
2022-10-07T01:27:11.693Z,14.01
2022-10-07T01:29:18.699Z,13.98
2022-10-07T01:31:26.385Z,13.28
2022-10-07T01:33:32.561Z,13.71
2022-10-07T01:35:38.743Z,13.50
2022-10-07T01:37:48.500Z,13.38
2022-10-07T01:39:54.947Z,13.48
2022-10-07T01:41:58.853Z,13.62
2022-10-07T01:44:03.985Z,13.68
2022-10-07T01:46:09.845Z,12.89
2022-10-07T01:48:12.787Z,13.77
2022-10-07T01:50:17.422Z,13.72
2022-10-07T01:52:43.143Z,12.53
2022-10-07T01:55:03.072Z,13.66
2022-10-07T01:57:18.310Z,13.07
2022-10-07T01:59:59.149Z,13.13
2022-10-07T02:02:09.797Z,13.39
2022-10-07T02:04:31.128Z,13.29
2022-10-07T02:06:42.409Z,13.25
2022-10-07T02:08:50.464Z,13.14
2022-10-07T02:11:05.262Z,13.29
2022-10-07T02:13:14.533Z,13.30
2022-10-07T02:15:24.767Z,13.35
2022-10-07T02:17:32.130Z,13.39
2022-10-07T02:19:39.311Z,13.41
2022-10-07T02:21:44.535Z,13.18
2022-10-07T02:23:50.425Z,13.23
2022-10-07T02:25:55.490Z,13.19
2022-10-07T02:28:03.375Z,13.00
2022-10-07T02:30:11.391Z,12.82
2022-10-07T02:32:20.747Z,12.95
2022-10-07T02:34:26.162Z,13.02
2022-10-07T02:36:32.903Z,13.02
2022-10-07T02:38:38.166Z,13.13
2022-10-07T02:40:45.828Z,13.01
2022-10-07T02:42:56.809Z,13.17
2022-10-07T02:45:06.313Z,13.30
2022-10-07T02:47:16.560Z,13.27
2022-10-07T02:49:24.108Z,13.28
2022-10-07T02:51:31.906Z,13.02
2022-10-07T02:53:36.857Z,13.41
2022-10-07T02:55:39.929Z,13.39
2022-10-07T02:57:47.228Z,13.41
2022-10-07T02:59:52.530Z,13.47
2022-10-07T03:02:01.728Z,13.56
2022-10-07T03:04:05.885Z,13.43
2022-10-07T03:06:12.737Z,13.24
2022-10-07T03:08:15.979Z,13.36
2022-10-07T03:10:19.665Z,13.45
2022-10-07T03:12:22.742Z,13.37
2022-10-07T03:14:25.688Z,13.17
2022-10-07T03:16:28.473Z,11.34
2022-10-07T03:18:31.287Z,12.08
2022-10-07T03:20:44.404Z,13.19
2022-10-07T03:22:48.603Z,11.87
2022-10-07T03:24:54.630Z,13.39
2022-10-07T03:26:57.569Z,13.48
2022-10-07T03:29:01.159Z,13.47
2022-10-07T03:31:06.360Z,13.49
2022-10-07T03:33:10.048Z,13.55
2022-10-07T03:35:14.123Z,13.43
2022-10-07T03:37:17.313Z,13.59
2022-10-07T03:39:21.805Z,13.53
2022-10-07T03:41:24.539Z,13.53
2022-10-07T03:43:30.727Z,13.22
2022-10-07T03:45:35.207Z,13.33
2022-10-07T03:47:38.216Z,13.37
2022-10-07T03:49:42.185Z,13.28
2022-10-07T03:51:46.013Z,13.39
2022-10-07T03:53:49.046Z,13.45
2022-10-07T03:55:54.230Z,12.21
2022-10-07T03:57:59.706Z,13.30
2022-10-07T04:00:04.994Z,13.31
2022-10-07T04:02:17.415Z,13.23
2022-10-07T04:04:20.597Z,13.22
2022-10-07T04:06:24.152Z,12.67
2022-10-07T04:08:28.322Z,13.31
2022-10-07T04:10:33.029Z,13.08
2022-10-07T04:12:37.383Z,13.13
2022-10-07T04:14:40.267Z,13.13
2022-10-07T04:16:43.443Z,13.16
2022-10-07T04:18:48.434Z,12.97
2022-10-07T04:20:51.478Z,13.28
2022-10-07T04:22:54.242Z,11.53
2022-10-07T04:25:14.939Z,12.94
2022-10-07T04:27:39.774Z,13.10
2022-10-07T04:29:41.931Z,13.16
2022-10-07T04:31:44.899Z,13.21
2022-10-07T04:33:47.729Z,13.24
2022-10-07T04:35:56.446Z,13.27
2022-10-07T04:37:59.986Z,13.27
2022-10-07T04:40:04.661Z,13.29
2022-10-07T04:42:29.538Z,13.34
2022-10-07T04:44:32.255Z,13.27
2022-10-07T04:46:42.179Z,12.40
2022-10-07T04:48:48.382Z,12.75
2022-10-07T04:50:54.881Z,11.78
2022-10-07T04:52:58.948Z,13.21
2022-10-07T04:55:06.861Z,13.22
2022-10-07T04:57:13.398Z,13.29
2022-10-07T04:59:16.879Z,13.17
2022-10-07T05:01:20.220Z,13.28
2022-10-07T05:03:27.175Z,13.32
2022-10-07T05:05:30.066Z,13.23
2022-10-07T05:07:33.045Z,13.22
2022-10-07T05:09:36.461Z,13.02
2022-10-07T05:11:39.175Z,12.95
2022-10-07T05:13:47.410Z,13.02
2022-10-07T05:15:52.019Z,11.86
2022-10-07T05:17:55.886Z,12.82
2022-10-07T05:20:02.043Z,12.88
2022-10-07T05:22:04.881Z,12.94
2022-10-07T05:24:07.732Z,13.02
2022-10-07T05:26:13.796Z,12.52
2022-10-07T05:28:19.851Z,13.05
2022-10-07T05:30:23.134Z,11.35
2022-10-07T05:32:26.510Z,12.50
2022-10-07T05:34:29.436Z,12.57
2022-10-07T05:36:33.483Z,11.31
2022-10-07T05:38:37.823Z,9.35
2022-10-07T05:40:40.830Z,12.50
2022-10-07T05:42:43.566Z,12.57
2022-10-07T05:44:46.338Z,12.93
2022-10-07T05:46:50.006Z,13.15
2022-10-07T05:48:55.453Z,13.18
2022-10-07T05:51:02.443Z,14.03
2022-10-07T05:53:08.456Z,14.16
2022-10-07T05:55:11.917Z,13.82
2022-10-07T05:57:14.765Z,14.14
2022-10-07T05:59:17.483Z,13.73
2022-10-07T06:01:23.918Z,13.90
2022-10-07T06:03:27.902Z,13.55
2022-10-07T06:05:32.967Z,13.77
2022-10-07T06:07:35.715Z,13.23
2022-10-07T06:09:58.874Z,13.76
2022-10-07T06:12:19.500Z,13.81
2022-10-07T06:14:23.851Z,13.82
2022-10-07T06:16:27.209Z,13.82
2022-10-07T06:18:30.606Z,13.83
2022-10-07T06:20:33.333Z,13.88
2022-10-07T06:22:36.295Z,13.74
2022-10-07T06:24:41.947Z,13.78
2022-10-07T06:26:44.840Z,13.34
2022-10-07T06:28:48.028Z,13.88
2022-10-07T06:30:52.497Z,13.84
2022-10-07T06:32:56.393Z,14.05
2022-10-07T06:34:59.277Z,14.19
2022-10-07T06:37:02.779Z,14.25
2022-10-07T06:39:06.344Z,14.29
2022-10-07T06:41:16.149Z,14.36
2022-10-07T06:43:20.049Z,14.36
2022-10-07T06:45:31.539Z,13.94
2022-10-07T06:47:35.069Z,14.04
2022-10-07T06:49:38.748Z,14.04
2022-10-07T06:51:41.523Z,14.25
2022-10-07T06:53:45.286Z,14.41
2022-10-07T06:55:51.507Z,14.50
2022-10-07T06:57:58.341Z,14.67
2022-10-07T07:00:01.623Z,14.77
2022-10-07T07:02:07.010Z,14.89
2022-10-07T07:04:10.412Z,15.02
2022-10-07T07:06:13.818Z,15.12
2022-10-07T07:08:17.329Z,15.21
2022-10-07T07:10:20.190Z,14.86
2022-10-07T07:12:26.737Z,15.10
2022-10-07T07:14:34.896Z,15.24
2022-10-07T07:16:45.970Z,15.39
2022-10-07T07:18:51.955Z,15.46
2022-10-07T07:20:54.781Z,15.53
2022-10-07T07:22:57.771Z,15.39
2022-10-07T07:25:00.600Z,15.53
2022-10-07T07:27:03.690Z,15.65
2022-10-07T07:29:07.901Z,15.69
2022-10-07T07:31:18.439Z,15.68
2022-10-07T07:33:21.291Z,15.75
2022-10-07T07:35:25.348Z,15.81
2022-10-07T07:37:29.591Z,15.53
2022-10-07T07:39:32.983Z,15.94
2022-10-07T07:41:46.817Z,15.71
2022-10-07T07:43:52.755Z,16.03
2022-10-07T07:45:59.213Z,16.04
2022-10-07T07:48:03.563Z,16.04
2022-10-07T07:50:09.792Z,16.08
2022-10-07T07:52:12.483Z,16.16
2022-10-07T07:54:20.565Z,16.13
2022-10-07T07:56:25.243Z,15.58
2022-10-07T07:58:28.470Z,16.25
2022-10-07T08:00:32.914Z,16.34
2022-10-07T08:02:40.040Z,16.40
2022-10-07T08:04:47.940Z,16.19
2022-10-07T08:06:51.546Z,15.57
2022-10-07T08:08:57.364Z,15.93
2022-10-07T08:11:07.982Z,16.11
2022-10-07T08:13:10.945Z,16.15
2022-10-07T08:15:15.093Z,16.11
2022-10-07T08:17:18.769Z,16.32
2022-10-07T08:19:21.936Z,16.53
2022-10-07T08:21:30.300Z,16.66
2022-10-07T08:23:35.130Z,16.73
2022-10-07T08:25:37.903Z,16.81
2022-10-07T08:27:43.922Z,16.56
2022-10-07T08:29:48.379Z,16.73
2022-10-07T08:31:51.443Z,16.52
2022-10-07T08:33:56.450Z,16.57
2022-10-07T08:36:00.510Z,17.19
2022-10-07T08:38:05.616Z,17.43
2022-10-07T08:40:18.354Z,17.72
2022-10-07T08:42:31.346Z,17.38
2022-10-07T08:44:39.577Z,17.76
2022-10-07T08:46:56.561Z,17.80
2022-10-07T08:49:04.703Z,17.96
2022-10-07T08:51:20.140Z,18.08
2022-10-07T08:53:29.682Z,17.72
2022-10-07T08:55:37.478Z,18.16
2022-10-07T08:57:50.825Z,18.27
2022-10-07T08:59:58.096Z,18.22
2022-10-07T09:02:15.585Z,18.04
2022-10-07T09:04:33.087Z,18.04
2022-10-07T09:06:39.812Z,18.14
2022-10-07T09:08:47.113Z,18.31
2022-10-07T09:10:53.423Z,18.27
2022-10-07T09:13:00.420Z,18.36
2022-10-07T09:15:06.799Z,17.41
2022-10-07T09:17:15.261Z,18.23
2022-10-07T09:19:23.467Z,18.29
2022-10-07T09:21:35.010Z,18.23
2022-10-07T09:23:37.995Z,18.47
2022-10-07T09:25:43.608Z,18.77
2022-10-07T09:27:46.530Z,18.95
2022-10-07T09:29:50.038Z,19.11
2022-10-07T09:31:53.627Z,17.71
2022-10-07T09:33:56.536Z,19.20
2022-10-07T09:36:07.055Z,19.14
2022-10-07T09:38:09.959Z,19.13
2022-10-07T09:40:24.094Z,19.18
2022-10-07T09:42:35.351Z,19.27
2022-10-07T09:44:40.069Z,18.73
2022-10-07T09:46:47.410Z,19.17
2022-10-07T09:48:53.861Z,19.00
2022-10-07T09:51:15.400Z,18.45
2022-10-07T09:53:21.142Z,18.92
2022-10-07T09:55:37.284Z,19.20
2022-10-07T09:57:41.661Z,19.15
2022-10-07T09:59:44.471Z,19.10
2022-10-07T10:01:54.519Z,19.26
2022-10-07T10:04:00.263Z,19.23
2022-10-07T10:06:05.496Z,19.04
2022-10-07T10:08:23.063Z,19.18
2022-10-07T10:10:28.393Z,19.20
2022-10-07T10:12:33.506Z,19.11
2022-10-07T10:14:45.535Z,19.10
2022-10-07T10:16:48.205Z,19.26
2022-10-07T10:18:55.564Z,19.32
2022-10-07T10:21:14.954Z,19.23
2022-10-07T10:23:28.600Z,19.18
2022-10-07T10:26:00.278Z,19.17
2022-10-07T10:28:08.432Z,19.05
2022-10-07T10:30:20.033Z,19.00
2022-10-07T10:32:48.712Z,19.03
2022-10-07T10:34:58.460Z,19.00
2022-10-07T10:37:05.864Z,18.94
2022-10-07T10:39:25.233Z,18.91
2022-10-07T10:41:37.076Z,18.24
2022-10-07T10:43:56.635Z,17.48
2022-10-07T10:46:25.697Z,18.77
2022-10-07T10:48:37.982Z,18.13
2022-10-07T10:50:53.295Z,18.78
2022-10-07T10:53:07.489Z,18.62
2022-10-07T10:55:33.190Z,18.75
2022-10-07T10:57:45.210Z,18.85
2022-10-07T11:00:06.920Z,18.74
2022-10-07T11:02:32.523Z,18.80
2022-10-07T11:04:46.210Z,17.33
2022-10-07T11:06:54.162Z,18.77
2022-10-07T11:08:59.892Z,18.99
2022-10-07T11:11:07.253Z,18.65
2022-10-07T11:13:24.744Z,18.97
2022-10-07T11:15:32.950Z,19.11
2022-10-07T11:17:37.778Z,19.20
2022-10-07T11:19:49.587Z,19.31
2022-10-07T11:21:54.129Z,19.02
2022-10-07T11:24:02.708Z,19.43
2022-10-07T11:26:15.237Z,19.51
2022-10-07T11:28:22.610Z,19.42
2022-10-07T11:30:38.542Z,19.63
2022-10-07T11:32:48.501Z,19.62
2022-10-07T11:34:56.221Z,19.59
2022-10-07T11:37:06.010Z,19.45
2022-10-07T11:39:09.875Z,19.41
2022-10-07T11:41:20.344Z,19.02
2022-10-07T11:43:27.285Z,19.30
2022-10-07T11:45:33.906Z,19.37
2022-10-07T11:47:40.939Z,19.39
2022-10-07T11:49:55.847Z,19.25
2022-10-07T11:52:03.640Z,19.29
2022-10-07T11:54:09.265Z,19.36
2022-10-07T11:56:20.407Z,16.32
2022-10-07T11:58:26.534Z,18.84
2022-10-07T12:00:32.418Z,19.23
2022-10-07T12:02:45.432Z,18.92
2022-10-07T12:04:49.811Z,18.76
2022-10-07T12:07:30.444Z,19.37
2022-10-07T12:09:54.605Z,19.50
2022-10-07T12:11:57.837Z,19.82
2022-10-07T12:14:31.639Z,19.96
2022-10-07T12:16:55.403Z,20.02
2022-10-07T12:19:16.028Z,20.18
2022-10-07T12:21:18.805Z,20.83
2022-10-07T12:23:40.954Z,21.49
2022-10-07T12:25:59.507Z,21.57
2022-10-07T12:28:02.386Z,21.57
2022-10-07T12:30:27.317Z,21.35
2022-10-07T12:32:48.518Z,21.37
2022-10-07T12:34:51.520Z,21.59
2022-10-07T12:36:54.353Z,22.29
2022-10-07T12:39:35.151Z,22.35
2022-10-07T12:41:46.310Z,22.27
2022-10-07T12:44:01.091Z,22.34
2022-10-07T12:46:10.214Z,22.57
2022-10-07T12:48:20.382Z,22.38
2022-10-07T12:50:25.380Z,23.33
2022-10-07T12:52:42.593Z,23.57
2022-10-07T12:54:51.580Z,23.66
2022-10-07T12:56:54.590Z,23.67
2022-10-07T12:59:28.023Z,23.56
2022-10-07T13:01:47.551Z,23.66
2022-10-07T13:04:13.796Z,24.48
2022-10-07T13:07:10.654Z,24.55
2022-10-07T13:09:38.353Z,24.61
2022-10-07T13:12:06.696Z,24.89
2022-10-07T13:14:19.007Z,25.23
2022-10-07T13:16:31.751Z,25.45
2022-10-07T13:18:42.662Z,25.10
2022-10-07T13:21:13.550Z,25.72
2022-10-07T13:23:21.978Z,23.16
2022-10-07T13:25:27.740Z,26.06
2022-10-07T13:27:32.609Z,26.16
2022-10-07T13:29:35.607Z,26.17
2022-10-07T13:31:38.364Z,26.01
2022-10-07T13:33:43.078Z,25.85
2022-10-07T13:35:45.960Z,25.90
2022-10-07T13:37:48.857Z,25.98
2022-10-07T13:39:51.597Z,25.58
2022-10-07T13:41:57.893Z,26.34
2022-10-07T13:44:03.621Z,26.41
2022-10-07T13:46:09.757Z,25.66
2022-10-07T13:48:24.820Z,26.53
2022-10-07T13:50:30.765Z,26.53
2022-10-07T13:52:37.159Z,26.60
2022-10-07T13:54:40.231Z,26.55
2022-10-07T13:56:43.805Z,26.58
2022-10-07T13:58:47.248Z,26.30
2022-10-07T14:00:50.121Z,26.52
2022-10-07T14:02:53.184Z,26.64
2022-10-07T14:05:00.895Z,26.91
2022-10-07T14:07:17.855Z,26.46
2022-10-07T14:09:24.732Z,26.31
2022-10-07T14:11:27.439Z,25.86
2022-10-07T14:13:31.502Z,27.07
2022-10-07T14:15:40.101Z,26.96
2022-10-07T14:17:47.624Z,26.28
2022-10-07T14:19:56.245Z,25.46
2022-10-07T14:22:00.505Z,26.00
2022-10-07T14:24:11.507Z,26.13
2022-10-07T14:26:16.491Z,24.41
2022-10-07T14:28:20.195Z,25.81
2022-10-07T14:30:56.331Z,25.77
2022-10-07T14:33:32.499Z,25.73
2022-10-07T14:35:37.076Z,25.47
2022-10-07T14:37:39.771Z,25.13
2022-10-07T14:39:47.633Z,24.82
2022-10-07T14:41:50.899Z,24.39
2022-10-07T14:43:53.800Z,24.05
2022-10-07T14:45:56.621Z,23.80
2022-10-07T14:47:59.370Z,23.64
2022-10-07T14:50:02.192Z,23.51
2022-10-07T14:52:06.100Z,23.32
2022-10-07T14:54:09.123Z,23.29
2022-10-07T14:56:16.139Z,23.35
2022-10-07T14:58:18.869Z,23.37
2022-10-07T15:00:23.703Z,23.28
2022-10-07T15:02:26.445Z,23.14
2022-10-07T15:04:29.346Z,22.95
2022-10-07T15:06:32.204Z,22.82
2022-10-07T15:08:34.929Z,22.65
2022-10-07T15:10:37.650Z,22.58
2022-10-07T15:12:42.958Z,22.44
2022-10-07T15:14:45.874Z,22.36
2022-10-07T15:16:50.405Z,22.05
2022-10-07T15:18:53.971Z,22.32
2022-10-07T15:20:57.863Z,22.00
2022-10-07T15:23:02.475Z,19.63
2022-10-07T15:25:06.047Z,22.60
2022-10-07T15:27:09.889Z,22.80
2022-10-07T15:29:15.138Z,23.09
2022-10-07T15:31:18.649Z,23.59
2022-10-07T15:33:21.418Z,23.50
2022-10-07T15:35:24.882Z,24.03
2022-10-07T15:37:28.237Z,24.35
2022-10-07T15:39:30.998Z,24.57
2022-10-07T15:41:36.026Z,23.72
2022-10-07T15:43:38.945Z,24.99
2022-10-07T15:45:46.174Z,25.12
2022-10-07T15:47:51.032Z,25.12
2022-10-07T15:49:53.905Z,25.10
2022-10-07T15:51:56.642Z,25.08
2022-10-07T15:54:00.083Z,25.04
2022-10-07T15:56:02.889Z,24.52
2022-10-07T15:58:05.879Z,24.03
2022-10-07T16:00:09.732Z,23.41
2022-10-07T16:02:19.138Z,22.90
2022-10-07T16:04:22.062Z,22.11
2022-10-07T16:06:27.094Z,22.06
2022-10-07T16:08:31.102Z,22.23
2022-10-07T16:10:38.011Z,20.79
2022-10-07T16:12:40.721Z,21.79
2022-10-07T16:14:43.500Z,21.17
2022-10-07T16:16:46.245Z,20.94
2022-10-07T16:18:52.171Z,21.08
2022-10-07T16:20:54.967Z,21.05
2022-10-07T16:22:57.715Z,20.38
2022-10-07T16:25:00.517Z,20.64
2022-10-07T16:27:03.302Z,20.52
2022-10-07T16:29:28.015Z,20.62
2022-10-07T16:31:31.793Z,20.29
2022-10-07T16:33:34.537Z,20.01
2022-10-07T16:35:38.575Z,19.57
2022-10-07T16:37:41.376Z,19.51
2022-10-07T16:39:44.059Z,19.30
2022-10-07T16:41:48.052Z,19.31
2022-10-07T16:43:50.761Z,19.31
2022-10-07T16:45:53.495Z,19.39
2022-10-07T16:47:56.844Z,19.08
2022-10-07T16:49:59.600Z,18.97
2022-10-07T16:52:04.374Z,17.10
2022-10-07T16:54:12.657Z,18.84
2022-10-07T16:56:16.819Z,18.77
2022-10-07T16:58:19.570Z,17.16
2022-10-07T17:00:23.035Z,17.88
2022-10-07T17:02:25.697Z,18.53
2022-10-07T17:04:28.342Z,18.54
2022-10-07T17:06:32.205Z,18.22
2022-10-07T17:08:40.542Z,18.76
2022-10-07T17:10:45.559Z,18.75
2022-10-07T17:12:48.236Z,18.65
2022-10-07T17:14:50.867Z,19.11
2022-10-07T17:16:56.575Z,18.94
2022-10-07T17:18:59.512Z,19.01
2022-10-07T17:21:02.164Z,18.69
2022-10-07T17:23:04.840Z,18.16
2022-10-07T17:25:09.474Z,18.30
2022-10-07T17:27:12.122Z,17.12
2022-10-07T17:29:18.150Z,18.07
2022-10-07T17:31:20.952Z,17.98
2022-10-07T17:33:23.722Z,17.99
2022-10-07T17:35:28.183Z,17.30
2022-10-07T17:37:30.864Z,17.82
2022-10-07T17:39:33.599Z,17.67
2022-10-07T17:41:38.907Z,15.78
2022-10-07T17:43:41.881Z,17.49
2022-10-07T17:45:44.543Z,17.36
2022-10-07T17:47:47.662Z,17.24
2022-10-07T17:49:50.673Z,16.86
2022-10-07T17:51:55.114Z,17.16
2022-10-07T17:53:59.557Z,17.14
2022-10-07T17:56:02.648Z,16.04
2022-10-07T17:58:06.715Z,16.99
2022-10-07T18:00:10.558Z,17.14
2022-10-07T18:02:16.181Z,17.13
2022-10-07T18:04:23.887Z,17.09
2022-10-07T18:06:28.910Z,17.05
2022-10-07T18:08:31.685Z,16.96
2022-10-07T18:10:34.486Z,16.91
2022-10-07T18:12:54.562Z,16.88
2022-10-07T18:15:16.270Z,16.73
2022-10-07T18:17:19.260Z,16.68
2022-10-07T18:19:22.982Z,16.63
2022-10-07T18:21:27.654Z,16.63
2022-10-07T18:23:30.331Z,16.64
2022-10-07T18:25:34.054Z,16.05
2022-10-07T18:27:36.747Z,16.33
2022-10-07T18:29:39.642Z,14.90
2022-10-07T18:31:43.919Z,16.59
2022-10-07T18:33:46.643Z,15.24
2022-10-07T18:35:49.291Z,14.96
2022-10-07T18:37:52.345Z,16.57
2022-10-07T18:39:55.065Z,16.55
2022-10-07T18:41:58.854Z,16.52
2022-10-07T18:44:01.567Z,16.07
2022-10-07T18:46:06.451Z,15.10
2022-10-07T18:48:10.613Z,16.40
2022-10-07T18:50:13.305Z,16.31
2022-10-07T18:52:16.075Z,16.24
2022-10-07T18:54:19.004Z,16.23
2022-10-07T18:56:23.660Z,16.11
2022-10-07T18:58:26.397Z,16.20
2022-10-07T19:00:29.261Z,16.22
2022-10-07T19:02:32.003Z,16.20
2022-10-07T19:04:36.054Z,16.21
2022-10-07T19:06:43.814Z,15.59
2022-10-07T19:08:47.084Z,15.77
2022-10-07T19:10:49.834Z,16.17
2022-10-07T19:13:10.096Z,16.15
2022-10-07T19:15:12.770Z,16.11
2022-10-07T19:17:15.482Z,16.07
2022-10-07T19:19:20.688Z,16.04
2022-10-07T19:21:25.946Z,16.03
2022-10-07T19:23:29.384Z,15.13
2022-10-07T19:25:47.206Z,15.98
2022-10-07T19:27:49.870Z,15.96
2022-10-07T19:29:52.601Z,15.62
2022-10-07T19:31:56.622Z,15.90
2022-10-07T19:34:02.532Z,15.93
2022-10-07T19:36:05.956Z,15.93
2022-10-07T19:38:10.122Z,15.92
2022-10-07T19:40:12.806Z,15.32
2022-10-07T19:42:15.471Z,15.77
2022-10-07T19:44:18.311Z,15.44
2022-10-07T19:46:22.551Z,15.30
2022-10-07T19:48:25.739Z,15.18
2022-10-07T19:50:28.420Z,15.62
2022-10-07T19:52:31.093Z,15.59
2022-10-07T19:54:36.237Z,15.56
2022-10-07T19:56:40.727Z,14.49
2022-10-07T19:58:51.030Z,15.54
2022-10-07T20:00:53.809Z,15.11
2022-10-07T20:02:57.846Z,14.79
2022-10-07T20:05:00.529Z,15.61
2022-10-07T20:07:03.251Z,15.64
2022-10-07T20:09:08.244Z,15.63
2022-10-07T20:11:13.171Z,15.65
2022-10-07T20:13:17.551Z,15.63
2022-10-07T20:15:21.101Z,15.02
2022-10-07T20:17:24.229Z,15.66
2022-10-07T20:19:27.188Z,15.68
2022-10-07T20:21:30.355Z,15.70
2022-10-07T20:23:34.420Z,15.77
2022-10-07T20:25:39.051Z,15.46
2022-10-07T20:27:43.967Z,15.84
2022-10-07T20:29:58.955Z,15.86
2022-10-07T20:32:02.349Z,15.02
2022-10-07T20:34:06.175Z,15.50
2022-10-07T20:36:10.540Z,15.68
2022-10-07T20:38:13.211Z,15.82
2022-10-07T20:40:33.162Z,15.10
2022-10-07T20:42:35.198Z,15.80
2022-10-07T20:44:39.880Z,15.80
2022-10-07T20:46:42.812Z,15.35
2022-10-07T20:48:45.816Z,15.75
2022-10-07T20:50:48.628Z,15.74
2022-10-07T20:52:51.319Z,15.72
2022-10-07T20:54:54.451Z,15.71
2022-10-07T20:56:58.924Z,15.71
2022-10-07T20:59:01.589Z,14.06
2022-10-07T21:01:09.711Z,15.69
2022-10-07T21:03:12.549Z,15.26
2022-10-07T21:05:15.346Z,15.32
2022-10-07T21:07:19.580Z,15.62
2022-10-07T21:09:22.347Z,14.75
2022-10-07T21:11:25.578Z,14.88
2022-10-07T21:13:28.383Z,15.50
2022-10-07T21:15:31.301Z,15.44
2022-10-07T21:17:36.246Z,15.45
2022-10-07T21:19:39.062Z,15.12
2022-10-07T21:21:42.084Z,15.42
2022-10-07T21:23:44.832Z,14.36
2022-10-07T21:25:48.099Z,15.37
2022-10-07T21:27:50.834Z,14.56
2022-10-07T21:29:53.559Z,15.38
2022-10-07T21:31:56.358Z,15.38
2022-10-07T21:34:01.607Z,15.35
2022-10-07T21:36:06.868Z,14.89
2022-10-07T21:38:09.602Z,15.38
2022-10-07T21:40:12.291Z,15.36
2022-10-07T21:42:15.690Z,15.38
2022-10-07T21:44:18.686Z,15.34
2022-10-07T21:46:22.247Z,14.90
2022-10-07T21:48:25.006Z,14.48
2022-10-07T21:50:29.049Z,15.35
2022-10-07T21:52:31.827Z,15.37
2022-10-07T21:54:34.468Z,15.34
2022-10-07T21:56:37.213Z,15.34
2022-10-07T21:58:40.148Z,15.34
2022-10-07T22:00:43.409Z,15.32
2022-10-07T22:02:46.464Z,14.09
2022-10-07T22:04:49.330Z,15.23
2022-10-07T22:07:10.812Z,15.32
2022-10-07T22:09:15.371Z,15.35
2022-10-07T22:11:21.937Z,15.22
2022-10-07T22:13:24.610Z,14.39
2022-10-07T22:15:27.497Z,15.08
2022-10-07T22:17:30.508Z,15.12
2022-10-07T22:19:33.279Z,15.02
2022-10-07T22:21:39.999Z,15.03
2022-10-07T22:23:44.757Z,14.43
2022-10-07T22:25:48.437Z,15.07
2022-10-07T22:27:51.492Z,15.08
2022-10-07T22:29:54.308Z,15.07
2022-10-07T22:31:57.789Z,15.17
2022-10-07T22:34:01.814Z,15.25
2022-10-07T22:36:03.833Z,15.27
2022-10-07T22:38:06.559Z,12.90
2022-10-07T22:40:11.303Z,15.23
2022-10-07T22:42:14.075Z,15.19
2022-10-07T22:44:16.763Z,14.77
2022-10-07T22:46:26.090Z,14.69
2022-10-07T22:48:31.315Z,14.72
2022-10-07T22:50:34.153Z,15.12
2022-10-07T22:52:37.087Z,15.18
2022-10-07T22:54:40.278Z,15.19
2022-10-07T22:56:45.794Z,15.22
2022-10-07T22:58:53.008Z,15.08
2022-10-07T23:00:55.707Z,15.10
2022-10-07T23:02:58.556Z,15.15
2022-10-07T23:05:01.456Z,15.19
2022-10-07T23:07:04.200Z,15.18
2022-10-07T23:09:06.910Z,15.16
2022-10-07T23:11:11.005Z,15.16
2022-10-07T23:13:15.137Z,15.09
2022-10-07T23:15:19.647Z,15.09
2022-10-07T23:17:22.617Z,14.39
2022-10-07T23:19:25.429Z,14.68
2022-10-07T23:21:30.020Z,15.10
2022-10-07T23:23:36.343Z,15.10
2022-10-07T23:25:43.131Z,14.75
2022-10-07T23:27:45.844Z,14.72
2022-10-07T23:29:49.964Z,15.12
2022-10-07T23:31:52.682Z,14.26
2022-10-07T23:33:57.224Z,15.09
2022-10-07T23:36:00.943Z,15.05
2022-10-07T23:38:03.638Z,13.99
2022-10-07T23:40:07.699Z,14.88
2022-10-07T23:42:10.461Z,15.05
2022-10-07T23:44:13.169Z,15.08
2022-10-07T23:46:19.169Z,15.07
2022-10-07T23:48:22.456Z,13.94
2022-10-07T23:50:25.203Z,15.03
2022-10-07T23:52:27.874Z,14.98
2022-10-07T23:54:30.575Z,14.11
2022-10-07T23:56:33.878Z,14.91
2022-10-07T23:58:37.257Z,14.90
